createdAt,value
2018-08-11T00:00:22.965Z,99.90
2018-08-11T00:01:27.051Z,99.90
2018-08-11T00:02:31.430Z,99.90
2018-08-11T00:03:35.464Z,99.90
2018-08-11T00:04:39.729Z,99.90
2018-08-11T00:05:43.718Z,99.90
2018-08-11T00:06:47.741Z,99.90
2018-08-11T00:07:51.842Z,99.90
2018-08-11T00:08:55.893Z,99.90
2018-08-11T00:10:00.011Z,99.90
2018-08-11T00:11:04.029Z,99.90
2018-08-11T00:12:08.008Z,99.90
2018-08-11T00:13:12.086Z,99.90
2018-08-11T00:14:16.129Z,99.90
2018-08-11T00:15:20.895Z,99.90
2018-08-11T00:16:24.917Z,99.90
2018-08-11T00:17:28.956Z,99.90
2018-08-11T00:18:33.010Z,99.90
2018-08-11T00:19:37.625Z,99.90
2018-08-11T00:20:41.677Z,99.90
2018-08-11T00:21:45.673Z,99.90
2018-08-11T00:22:49.710Z,99.90
2018-08-11T00:23:53.742Z,99.90
2018-08-11T00:24:57.746Z,99.90
2018-08-11T00:26:01.781Z,99.90
2018-08-11T00:27:05.852Z,99.90
2018-08-11T00:28:09.896Z,99.90
2018-08-11T00:29:13.937Z,99.90
2018-08-11T00:30:19.437Z,99.90
2018-08-11T00:31:23.467Z,99.90
2018-08-11T00:32:27.543Z,99.90
2018-08-11T00:33:31.770Z,99.90
2018-08-11T00:34:35.826Z,99.90
2018-08-11T00:35:39.907Z,99.90
2018-08-11T00:36:43.929Z,99.90
2018-08-11T00:37:47.908Z,99.90
2018-08-11T00:38:51.971Z,99.90
2018-08-11T00:39:55.942Z,99.90
2018-08-11T00:41:00.830Z,99.90
2018-08-11T00:42:04.875Z,99.90
2018-08-11T00:43:08.960Z,99.90
2018-08-11T00:44:12.998Z,99.90
2018-08-11T00:45:17.414Z,99.90
2018-08-11T00:46:21.454Z,99.90
2018-08-11T00:47:25.527Z,99.90
2018-08-11T00:48:29.749Z,99.90
2018-08-11T00:49:33.816Z,99.90
2018-08-11T00:50:37.888Z,99.90
2018-08-11T00:51:41.901Z,99.90
2018-08-11T00:52:45.925Z,99.90
2018-08-11T00:53:49.942Z,99.90
2018-08-11T00:54:53.988Z,99.90
2018-08-11T00:55:58.026Z,99.90
2018-08-11T00:57:02.062Z,99.90
2018-08-11T00:58:06.200Z,99.90
2018-08-11T00:59:10.236Z,99.90
2018-08-11T01:00:17.044Z,99.90
2018-08-11T01:01:21.254Z,99.90
2018-08-11T01:02:25.322Z,99.90
2018-08-11T01:03:29.357Z,99.90
2018-08-11T01:04:33.434Z,99.90
2018-08-11T01:05:37.535Z,99.90
2018-08-11T01:06:41.539Z,99.90
2018-08-11T01:07:46.129Z,99.90
2018-08-11T01:08:50.129Z,99.90
2018-08-11T01:09:54.238Z,99.90
2018-08-11T01:10:58.311Z,99.90
2018-08-11T01:12:02.310Z,99.90
2018-08-11T01:13:06.711Z,99.90
2018-08-11T01:14:10.735Z,99.90
2018-08-11T01:15:16.795Z,99.90
2018-08-11T01:16:20.796Z,99.90
2018-08-11T01:17:24.826Z,99.90
2018-08-11T01:18:29.042Z,99.90
2018-08-11T01:19:33.097Z,99.90
2018-08-11T01:20:37.179Z,99.90
2018-08-11T01:21:41.215Z,99.90
2018-08-11T01:22:46.113Z,99.90
2018-08-11T01:23:50.129Z,99.90
2018-08-11T01:24:54.448Z,99.90
2018-08-11T01:25:58.492Z,99.90
2018-08-11T01:27:02.528Z,99.90
2018-08-11T01:28:06.542Z,99.90
2018-08-11T01:29:10.549Z,99.90
2018-08-11T01:30:16.089Z,99.90
2018-08-11T01:31:20.113Z,99.90
2018-08-11T01:32:24.231Z,99.90
2018-08-11T01:33:28.330Z,99.90
2018-08-11T01:34:32.338Z,99.90
2018-08-11T01:35:36.388Z,99.90
2018-08-11T01:36:40.377Z,99.90
2018-08-11T01:37:45.129Z,99.90
2018-08-11T01:38:49.116Z,99.90
2018-08-11T01:39:53.158Z,99.90
2018-08-11T01:40:57.482Z,99.90
2018-08-11T01:42:01.474Z,99.90
2018-08-11T01:43:05.531Z,99.90
2018-08-11T01:44:09.548Z,99.90
2018-08-11T01:45:14.252Z,99.90
2018-08-11T01:46:18.318Z,99.90
2018-08-11T01:47:22.365Z,99.90
2018-08-11T01:48:26.479Z,99.90
2018-08-11T01:49:30.486Z,99.90
2018-08-11T01:50:34.536Z,99.90
2018-08-11T01:51:38.649Z,99.90
2018-08-11T01:52:46.745Z,99.90
2018-08-11T01:53:50.747Z,99.90
2018-08-11T01:54:55.061Z,99.90
2018-08-11T01:55:59.052Z,99.90
2018-08-11T01:57:03.064Z,99.90
2018-08-11T01:58:07.628Z,99.90
2018-08-11T01:59:11.703Z,99.90
2018-08-11T02:00:16.481Z,99.90
2018-08-11T02:01:20.512Z,99.90
2018-08-11T02:02:24.522Z,99.90
2018-08-11T02:03:29.134Z,99.90
2018-08-11T02:04:33.159Z,99.90
2018-08-11T02:05:37.207Z,99.90
2018-08-11T02:06:41.222Z,99.90
2018-08-11T02:07:45.632Z,99.90
2018-08-11T02:08:49.657Z,99.90
2018-08-11T02:09:53.675Z,99.90
2018-08-11T02:10:57.696Z,99.90
2018-08-11T02:12:01.710Z,99.90
2018-08-11T02:13:05.830Z,99.90
2018-08-11T02:14:09.942Z,99.90
2018-08-11T02:15:14.495Z,99.90
2018-08-11T02:16:18.571Z,99.90
2018-08-11T02:17:22.610Z,99.90
2018-08-11T02:18:26.601Z,99.90
2018-08-11T02:19:30.662Z,99.90
2018-08-11T02:20:34.740Z,99.90
2018-08-11T02:21:38.753Z,99.90
2018-08-11T02:22:44.535Z,99.90
2018-08-11T02:23:48.600Z,99.90
2018-08-11T02:24:52.634Z,99.90
2018-08-11T02:25:56.629Z,99.90
2018-08-11T02:27:00.668Z,99.90
2018-08-11T02:28:04.709Z,99.90
2018-08-11T02:29:08.708Z,99.90
2018-08-11T02:30:14.689Z,99.90
2018-08-11T02:31:18.727Z,99.90
2018-08-11T02:32:22.731Z,99.90
2018-08-11T02:33:26.711Z,99.90
2018-08-11T02:34:30.785Z,99.90
2018-08-11T02:35:34.696Z,99.90
2018-08-11T02:36:38.706Z,99.90
2018-08-11T02:37:42.987Z,99.90
2018-08-11T02:38:47.000Z,99.90
2018-08-11T02:39:51.014Z,99.90
2018-08-11T02:40:55.127Z,99.90
2018-08-11T02:41:59.221Z,99.90
2018-08-11T02:43:03.230Z,99.90
2018-08-11T02:44:07.261Z,99.90
2018-08-11T02:45:13.332Z,99.90
2018-08-11T02:46:17.363Z,99.90
2018-08-11T02:47:21.383Z,99.90
2018-08-11T02:48:25.363Z,99.90
2018-08-11T02:49:29.424Z,99.90
2018-08-11T02:50:33.433Z,99.90
2018-08-11T02:51:37.442Z,99.90
2018-08-11T02:52:41.844Z,99.90
2018-08-11T02:53:45.883Z,99.90
2018-08-11T02:54:49.880Z,99.90
2018-08-11T02:55:53.916Z,99.90
2018-08-11T02:56:57.940Z,99.90
2018-08-11T02:58:01.989Z,99.90
2018-08-11T02:59:06.046Z,99.90
2018-08-11T03:00:11.501Z,99.90
2018-08-11T03:01:15.526Z,99.90
2018-08-11T03:02:19.595Z,99.90
2018-08-11T03:03:23.542Z,99.90
2018-08-11T03:04:27.601Z,99.90
2018-08-11T03:05:31.609Z,99.90
2018-08-11T03:06:35.596Z,99.90
2018-08-11T03:07:39.661Z,99.90
2018-08-11T03:08:43.680Z,99.90
2018-08-11T03:09:47.699Z,99.90
2018-08-11T03:10:51.730Z,99.90
2018-08-11T03:11:55.790Z,99.90
2018-08-11T03:12:59.818Z,99.90
2018-08-11T03:14:04.353Z,99.90
2018-08-11T03:15:10.079Z,99.90
2018-08-11T03:16:14.091Z,99.90
2018-08-11T03:17:18.101Z,99.90
2018-08-11T03:18:22.113Z,99.90
2018-08-11T03:19:26.123Z,99.90
2018-08-11T03:20:30.136Z,99.90
2018-08-11T03:21:34.160Z,99.90
2018-08-11T03:22:38.214Z,99.90
2018-08-11T03:23:42.213Z,99.90
2018-08-11T03:24:48.073Z,99.90
2018-08-11T03:25:52.117Z,99.90
2018-08-11T03:26:56.139Z,99.90
2018-08-11T03:28:00.150Z,99.90
2018-08-11T03:29:04.140Z,99.90
2018-08-11T03:30:08.549Z,99.90
2018-08-11T03:31:12.575Z,99.90
2018-08-11T03:32:16.555Z,99.90
2018-08-11T03:33:20.549Z,99.90
2018-08-11T03:34:24.545Z,99.90
2018-08-11T03:35:28.557Z,99.90
2018-08-11T03:36:32.541Z,99.90
2018-08-11T03:37:36.540Z,99.90
2018-08-11T03:38:40.544Z,99.90
2018-08-11T03:39:44.537Z,99.90
2018-08-11T03:40:48.549Z,99.90
2018-08-11T03:41:52.552Z,99.90
2018-08-11T03:42:56.547Z,99.90
2018-08-11T03:44:00.567Z,99.90
2018-08-11T03:45:04.897Z,99.90
2018-08-11T03:46:08.914Z,99.90
2018-08-11T03:47:12.953Z,99.90
2018-08-11T03:48:16.988Z,99.90
2018-08-11T03:49:20.980Z,99.90
2018-08-11T03:50:25.039Z,99.90
2018-08-11T03:51:29.114Z,99.90
2018-08-11T03:52:33.175Z,99.90
2018-08-11T03:53:37.174Z,99.90
2018-08-11T03:54:41.183Z,99.90
2018-08-11T03:55:45.213Z,99.90
2018-08-11T03:56:49.213Z,99.90
2018-08-11T03:57:53.286Z,99.90
2018-08-11T03:58:57.325Z,99.90
2018-08-11T04:00:01.533Z,99.90
2018-08-11T04:01:05.530Z,99.90
2018-08-11T04:02:09.693Z,99.90
2018-08-11T04:03:13.799Z,99.90
2018-08-11T04:04:17.793Z,99.90
2018-08-11T04:05:21.841Z,99.90
2018-08-11T04:06:25.834Z,99.90
2018-08-11T04:07:29.850Z,99.90
2018-08-11T04:08:33.922Z,99.90
2018-08-11T04:09:37.903Z,99.90
2018-08-11T04:10:41.938Z,99.90
2018-08-11T04:11:46.336Z,99.90
2018-08-11T04:12:50.307Z,99.90
2018-08-11T04:13:54.347Z,99.90
2018-08-11T04:14:58.387Z,99.90
2018-08-11T04:16:02.383Z,99.90
2018-08-11T04:17:06.550Z,99.90
2018-08-11T04:18:10.558Z,99.90
2018-08-11T04:19:14.595Z,99.90
2018-08-11T04:20:18.590Z,99.90
2018-08-11T04:21:22.628Z,99.90
2018-08-11T04:22:26.654Z,99.90
2018-08-11T04:23:31.034Z,99.90
2018-08-11T04:24:35.050Z,99.90
2018-08-11T04:25:39.045Z,99.90
2018-08-11T04:26:43.052Z,99.90
2018-08-11T04:27:47.061Z,99.90
2018-08-11T04:28:51.072Z,99.90
2018-08-11T04:29:55.281Z,99.90
2018-08-11T04:30:59.281Z,99.90
2018-08-11T04:32:03.308Z,99.90
2018-08-11T04:33:07.284Z,99.90
2018-08-11T04:34:11.320Z,99.90
2018-08-11T04:35:15.280Z,99.90
2018-08-11T04:36:19.307Z,99.90
2018-08-11T04:37:23.349Z,99.90
2018-08-11T04:38:27.340Z,99.90
2018-08-11T04:39:31.346Z,99.90
2018-08-11T04:40:35.383Z,99.90
2018-08-11T04:41:39.545Z,99.90
2018-08-11T04:42:43.566Z,99.90
2018-08-11T04:43:47.566Z,99.90
2018-08-11T04:44:51.788Z,99.90
2018-08-11T04:45:55.781Z,99.90
2018-08-11T04:46:59.789Z,99.90
2018-08-11T04:48:03.874Z,99.90
2018-08-11T04:49:07.868Z,99.90
2018-08-11T04:50:11.892Z,99.90
2018-08-11T04:51:15.911Z,99.90
2018-08-11T04:52:20.013Z,99.90
2018-08-11T04:53:24.009Z,99.90
2018-08-11T04:54:28.010Z,99.90
2018-08-11T04:55:32.026Z,99.90
2018-08-11T04:56:36.165Z,99.90
2018-08-11T04:57:40.166Z,99.90
2018-08-11T04:58:44.155Z,99.90
2018-08-11T04:59:48.126Z,99.90
2018-08-11T05:00:52.221Z,99.90
2018-08-11T05:01:56.386Z,99.90
2018-08-11T05:03:00.438Z,99.90
2018-08-11T05:04:04.494Z,99.90
2018-08-11T05:05:09.005Z,99.90
2018-08-11T05:06:13.069Z,99.90
2018-08-11T05:07:17.138Z,99.90
2018-08-11T05:08:21.140Z,99.90
2018-08-11T05:09:25.160Z,99.90
2018-08-11T05:10:29.507Z,99.90
2018-08-11T05:11:33.539Z,99.90
2018-08-11T05:12:37.571Z,99.90
2018-08-11T05:13:42.275Z,99.90
2018-08-11T05:14:46.280Z,99.90
2018-08-11T05:15:50.313Z,99.90
2018-08-11T05:16:54.321Z,99.90
2018-08-11T05:17:58.585Z,99.90
2018-08-11T05:19:02.648Z,99.90
2018-08-11T05:20:07.338Z,99.90
2018-08-11T05:21:11.440Z,99.90
2018-08-11T05:22:15.452Z,99.90
2018-08-11T05:23:19.476Z,99.90
2018-08-11T05:24:23.722Z,99.90
2018-08-11T05:25:27.738Z,99.90
2018-08-11T05:26:31.718Z,99.90
2018-08-11T05:27:35.763Z,99.90
2018-08-11T05:28:39.768Z,99.90
2018-08-11T05:29:43.884Z,99.90
2018-08-11T05:30:47.932Z,99.90
2018-08-11T05:31:51.964Z,99.90
2018-08-11T05:32:56.005Z,99.90
2018-08-11T05:34:00.051Z,99.90
2018-08-11T05:35:04.747Z,99.90
2018-08-11T05:36:08.800Z,99.90
2018-08-11T05:37:13.254Z,99.90
2018-08-11T05:38:17.353Z,99.90
2018-08-11T05:39:21.473Z,99.90
2018-08-11T05:40:25.530Z,99.90
2018-08-11T05:41:29.591Z,99.90
2018-08-11T05:42:33.633Z,99.90
2018-08-11T05:43:37.683Z,99.90
2018-08-11T05:44:41.675Z,99.90
2018-08-11T05:45:45.674Z,99.90
2018-08-11T05:46:49.679Z,99.90
2018-08-11T05:47:53.741Z,99.90
2018-08-11T05:48:57.749Z,99.90
2018-08-11T05:50:01.773Z,99.90
2018-08-11T05:51:06.264Z,99.90
2018-08-11T05:52:10.265Z,99.90
2018-08-11T05:53:20.730Z,99.90
2018-08-11T05:54:25.004Z,99.90
2018-08-11T05:55:29.234Z,99.90
2018-08-11T05:56:33.417Z,99.90
2018-08-11T05:57:37.471Z,99.90
2018-08-11T05:58:41.460Z,99.90
2018-08-11T05:59:45.466Z,99.90
2018-08-11T06:00:49.535Z,99.90
2018-08-11T06:01:53.655Z,99.90
2018-08-11T06:02:57.645Z,99.90
2018-08-11T06:04:01.690Z,99.90
2018-08-11T06:05:06.200Z,99.90
2018-08-11T06:06:10.191Z,99.90
2018-08-11T06:07:14.173Z,99.90
2018-08-11T06:08:18.440Z,99.90
2018-08-11T06:09:22.506Z,99.90
2018-08-11T06:10:26.609Z,99.90
2018-08-11T06:11:30.719Z,99.90
2018-08-11T06:12:34.709Z,99.90
2018-08-11T06:13:38.723Z,99.90
2018-08-11T06:14:42.764Z,99.90
2018-08-11T06:15:46.850Z,99.90
2018-08-11T06:16:50.857Z,99.90
2018-08-11T06:17:55.041Z,99.90
2018-08-11T06:18:59.264Z,99.90
2018-08-11T06:20:03.682Z,99.90
2018-08-11T06:21:08.929Z,99.90
2018-08-11T06:22:14.337Z,99.90
2018-08-11T06:23:18.403Z,99.90
2018-08-11T06:24:22.480Z,99.90
2018-08-11T06:25:26.661Z,99.90
2018-08-11T06:26:30.730Z,99.90
2018-08-11T06:27:34.765Z,99.90
2018-08-11T06:28:38.799Z,99.90
2018-08-11T06:29:42.907Z,99.90
2018-08-11T06:30:48.307Z,99.90
2018-08-11T06:31:52.381Z,99.90
2018-08-11T06:32:56.432Z,99.90
2018-08-11T06:34:00.433Z,99.90
2018-08-11T06:35:05.867Z,99.90
2018-08-11T06:36:09.942Z,99.90
2018-08-11T06:37:14.000Z,99.90
2018-08-11T06:38:18.036Z,99.90
2018-08-11T06:39:22.267Z,99.90
2018-08-11T06:40:26.504Z,99.90
2018-08-11T06:41:30.691Z,99.90
2018-08-11T06:42:34.702Z,99.90
2018-08-11T06:43:38.746Z,99.90
2018-08-11T06:44:42.834Z,99.90
2018-08-11T06:45:46.937Z,99.90
2018-08-11T06:46:51.025Z,99.90
2018-08-11T06:47:55.010Z,99.90
2018-08-11T06:48:59.017Z,99.90
2018-08-11T06:50:03.057Z,99.90
2018-08-11T06:51:07.215Z,99.90
2018-08-11T06:52:11.282Z,99.90
2018-08-11T06:53:15.330Z,99.90
2018-08-11T06:54:19.466Z,99.90
2018-08-11T06:55:23.491Z,99.90
2018-08-11T06:56:27.528Z,99.90
2018-08-11T06:57:31.680Z,99.90
2018-08-11T06:58:35.755Z,99.90
2018-08-11T06:59:39.798Z,99.90
2018-08-11T07:00:43.939Z,99.90
2018-08-11T07:01:47.963Z,99.90
2018-08-11T07:02:52.164Z,99.90
2018-08-11T07:03:56.439Z,99.90
2018-08-11T07:05:00.478Z,99.90
2018-08-11T07:06:04.559Z,99.90
2018-08-11T07:07:08.606Z,99.90
2018-08-11T07:08:12.618Z,99.90
2018-08-11T07:09:16.662Z,99.90
2018-08-11T07:10:20.685Z,99.90
2018-08-11T07:11:24.773Z,99.90
2018-08-11T07:12:28.857Z,99.90
2018-08-11T07:13:32.924Z,99.90
2018-08-11T07:14:37.046Z,99.90
2018-08-11T07:15:41.087Z,99.90
2018-08-11T07:16:45.377Z,99.90
2018-08-11T07:17:50.228Z,99.90
2018-08-11T07:18:54.431Z,99.90
2018-08-11T07:19:58.493Z,99.90
2018-08-11T07:21:02.562Z,99.90
2018-08-11T07:22:06.657Z,99.90
2018-08-11T07:23:10.705Z,99.90
2018-08-11T07:24:14.730Z,99.90
2018-08-11T07:25:18.796Z,99.90
2018-08-11T07:26:22.815Z,99.90
2018-08-11T07:27:26.855Z,99.90
2018-08-11T07:28:30.917Z,99.90
2018-08-11T07:29:34.928Z,99.90
2018-08-11T07:30:38.906Z,99.90
2018-08-11T07:31:42.919Z,99.90
2018-08-11T07:32:46.987Z,99.90
2018-08-11T07:33:51.027Z,99.90
2018-08-11T07:34:55.078Z,99.90
2018-08-11T07:35:59.175Z,99.90
2018-08-11T07:37:03.217Z,99.60
2018-08-11T07:38:07.475Z,99.90
2018-08-11T07:39:11.533Z,99.60
2018-08-11T07:40:15.896Z,99.80
2018-08-11T07:41:19.926Z,99.90
2018-08-11T07:42:23.971Z,99.70
2018-08-11T07:43:28.211Z,99.90
2018-08-11T07:44:32.164Z,99.80
2018-08-11T07:45:36.180Z,99.90
2018-08-11T07:46:40.394Z,99.90
2018-08-11T07:47:44.542Z,99.90
2018-08-11T07:48:48.569Z,99.90
2018-08-11T07:49:52.580Z,99.90
2018-08-11T07:50:56.644Z,99.80
2018-08-11T07:52:00.630Z,99.80
2018-08-11T07:53:04.666Z,99.90
2018-08-11T07:54:08.699Z,99.80
2018-08-11T07:55:12.812Z,99.80
2018-08-11T07:56:16.888Z,98.90
2018-08-11T07:57:20.968Z,98.30
2018-08-11T07:58:24.991Z,98.30
2018-08-11T07:59:29.006Z,98.30
2018-08-11T08:00:33.909Z,98.20
2018-08-11T08:01:38.051Z,97.70
2018-08-11T08:02:42.283Z,97.70
2018-08-11T08:03:46.516Z,97.60
2018-08-11T08:04:50.971Z,97.30
2018-08-11T08:05:55.080Z,97.20
2018-08-11T08:06:59.112Z,97.30
2018-08-11T08:08:03.210Z,97.50
2018-08-11T08:09:10.528Z,96.50
2018-08-11T08:10:14.709Z,96.60
2018-08-11T08:11:18.892Z,96.90
2018-08-11T08:12:22.916Z,97.20
2018-08-11T08:13:26.918Z,97.30
2018-08-11T08:14:30.927Z,97.40
2018-08-11T08:15:34.937Z,97.40
2018-08-11T08:16:38.993Z,97.30
2018-08-11T08:17:43.030Z,97.60
2018-08-11T08:18:47.062Z,97.40
2018-08-11T08:19:51.060Z,97.40
2018-08-11T08:20:55.207Z,96.60
2018-08-11T08:21:59.241Z,97.00
2018-08-11T08:23:03.399Z,97.20
2018-08-11T08:24:07.447Z,97.20
2018-08-11T08:25:11.472Z,97.20
2018-08-11T08:26:15.630Z,97.20
2018-08-11T08:27:19.641Z,97.50
2018-08-11T08:28:23.708Z,97.50
2018-08-11T08:29:27.714Z,97.60
2018-08-11T08:30:31.761Z,97.30
2018-08-11T08:31:35.853Z,97.20
2018-08-11T08:32:40.097Z,97.50
2018-08-11T08:33:44.153Z,97.40
2018-08-11T08:34:48.198Z,97.00
2018-08-11T08:35:52.210Z,97.10
2018-08-11T08:36:56.255Z,96.70
2018-08-11T08:38:00.275Z,96.10
2018-08-11T08:39:07.513Z,96.50
2018-08-11T08:40:11.523Z,96.10
2018-08-11T08:41:15.548Z,96.00
2018-08-11T08:42:19.580Z,95.90
2018-08-11T08:43:23.619Z,95.70
2018-08-11T08:44:27.645Z,95.90
2018-08-11T08:45:31.703Z,95.30
2018-08-11T08:46:35.672Z,95.50
2018-08-11T08:47:39.717Z,95.60
2018-08-11T08:48:43.709Z,95.60
2018-08-11T08:49:47.721Z,95.50
2018-08-11T08:50:51.706Z,94.50
2018-08-11T08:51:55.721Z,94.80
2018-08-11T08:52:59.739Z,94.60
2018-08-11T08:54:03.796Z,94.60
2018-08-11T08:55:07.825Z,94.50
2018-08-11T08:56:11.824Z,94.70
2018-08-11T08:57:15.874Z,95.00
2018-08-11T08:58:19.866Z,95.00
2018-08-11T08:59:23.869Z,94.60
2018-08-11T09:00:27.895Z,93.90
2018-08-11T09:01:31.906Z,94.20
2018-08-11T09:02:35.929Z,93.90
2018-08-11T09:03:39.947Z,94.00
2018-08-11T09:04:44.101Z,93.70
2018-08-11T09:05:48.078Z,93.60
2018-08-11T09:06:52.108Z,94.10
2018-08-11T09:07:56.097Z,94.10
2018-08-11T09:09:00.092Z,94.00
2018-08-11T09:10:04.467Z,94.00
2018-08-11T09:11:08.508Z,94.10
2018-08-11T09:12:12.658Z,93.30
2018-08-11T09:13:16.666Z,91.90
2018-08-11T09:14:20.717Z,92.70
2018-08-11T09:15:24.763Z,92.70
2018-08-11T09:16:28.782Z,92.80
2018-08-11T09:17:39.439Z,92.70
2018-08-11T09:18:43.455Z,92.50
2018-08-11T09:19:47.481Z,92.30
2018-08-11T09:20:51.507Z,91.50
2018-08-11T09:21:55.577Z,91.00
2018-08-11T09:22:59.597Z,91.70
2018-08-11T09:24:03.616Z,91.30
2018-08-11T09:25:11.852Z,91.30
2018-08-11T09:26:15.867Z,91.60
2018-08-11T09:27:19.846Z,91.80
2018-08-11T09:28:24.515Z,91.70
2018-08-11T09:29:28.629Z,91.50
2018-08-11T09:30:32.750Z,91.80
2018-08-11T09:31:36.741Z,91.70
2018-08-11T09:32:40.757Z,91.60
2018-08-11T09:33:44.821Z,91.60
2018-08-11T09:34:48.852Z,92.30
2018-08-11T09:35:52.930Z,92.40
2018-08-11T09:36:56.990Z,92.40
2018-08-11T09:38:01.020Z,92.00
2018-08-11T09:39:07.193Z,92.20
2018-08-11T09:40:11.221Z,92.30
2018-08-11T09:41:15.258Z,92.50
2018-08-11T09:42:20.806Z,92.00
2018-08-11T09:43:24.932Z,91.80
2018-08-11T09:44:28.940Z,91.90
2018-08-11T09:45:32.942Z,92.10
2018-08-11T09:46:37.002Z,92.00
2018-08-11T09:47:40.982Z,92.30
2018-08-11T09:48:44.995Z,92.30
2018-08-11T09:49:49.195Z,92.30
2018-08-11T09:50:53.182Z,92.50
2018-08-11T09:51:57.215Z,92.50
2018-08-11T09:53:01.225Z,92.30
2018-08-11T09:54:05.233Z,92.40
2018-08-11T09:55:09.297Z,92.60
2018-08-11T09:56:16.207Z,92.20
2018-08-11T09:57:20.344Z,92.50
2018-08-11T09:58:24.374Z,92.70
2018-08-11T09:59:28.390Z,92.60
2018-08-11T10:00:37.800Z,92.60
2018-08-11T10:01:44.158Z,92.30
2018-08-11T10:02:48.185Z,92.20
2018-08-11T10:03:52.199Z,92.50
2018-08-11T10:04:56.231Z,92.20
2018-08-11T10:06:00.211Z,92.30
2018-08-11T10:07:05.485Z,91.90
2018-08-11T10:08:09.579Z,91.90
2018-08-11T10:09:14.809Z,92.10
2018-08-11T10:10:19.030Z,90.90
2018-08-11T10:11:23.056Z,91.60
2018-08-11T10:12:27.138Z,91.70
2018-08-11T10:13:31.138Z,91.90
2018-08-11T10:14:35.254Z,91.60
2018-08-11T10:15:39.267Z,91.40
2018-08-11T10:16:43.322Z,91.30
2018-08-11T10:17:47.355Z,91.10
2018-08-11T10:18:51.569Z,90.70
2018-08-11T10:19:55.598Z,90.70
2018-08-11T10:20:59.617Z,90.30
2018-08-11T10:22:03.630Z,90.00
2018-08-11T10:23:07.649Z,88.80
2018-08-11T10:24:11.681Z,88.20
2018-08-11T10:25:15.708Z,87.70
2018-08-11T10:26:19.722Z,88.40
2018-08-11T10:27:23.825Z,88.10
2018-08-11T10:28:27.801Z,88.20
2018-08-11T10:29:31.814Z,87.90
2018-08-11T10:30:35.802Z,87.90
2018-08-11T10:31:41.259Z,87.90
2018-08-11T10:32:45.286Z,88.00
2018-08-11T10:33:49.258Z,88.60
2018-08-11T10:34:53.313Z,87.60
2018-08-11T10:35:57.343Z,87.70
2018-08-11T10:37:01.693Z,87.90
2018-08-11T10:38:05.662Z,88.10
2018-08-11T10:39:11.833Z,88.40
2018-08-11T10:40:15.932Z,87.70
2018-08-11T10:41:19.827Z,87.10
2018-08-11T10:42:23.840Z,88.20
2018-08-11T10:43:27.830Z,87.80
2018-08-11T10:44:31.866Z,87.30
2018-08-11T10:45:35.905Z,87.10
2018-08-11T10:46:40.156Z,86.30
2018-08-11T10:47:44.173Z,86.30
2018-08-11T10:48:48.181Z,86.50
2018-08-11T10:49:52.214Z,87.10
2018-08-11T10:50:56.231Z,87.20
2018-08-11T10:52:00.246Z,87.60
2018-08-11T10:53:04.263Z,87.50
2018-08-11T10:54:08.362Z,86.50
2018-08-11T10:55:12.478Z,86.60
2018-08-11T10:56:16.490Z,86.90
2018-08-11T10:57:20.493Z,86.10
2018-08-11T10:58:24.514Z,86.10
2018-08-11T10:59:28.516Z,86.80
2018-08-11T11:00:32.504Z,85.90
2018-08-11T11:01:36.558Z,86.30
2018-08-11T11:02:40.543Z,86.00
2018-08-11T11:03:44.615Z,85.50
2018-08-11T11:04:48.630Z,85.70
2018-08-11T11:05:52.606Z,86.10
2018-08-11T11:06:56.613Z,86.00
2018-08-11T11:08:00.631Z,85.00
2018-08-11T11:09:07.702Z,85.00
2018-08-11T11:10:11.696Z,83.70
2018-08-11T11:11:15.910Z,83.60
2018-08-11T11:12:19.958Z,82.70
2018-08-11T11:13:24.027Z,82.40
2018-08-11T11:14:28.035Z,83.30
2018-08-11T11:15:32.053Z,84.30
2018-08-11T11:16:36.793Z,83.90
2018-08-11T11:17:41.208Z,83.70
2018-08-11T11:18:45.208Z,83.80
2018-08-11T11:19:49.205Z,83.40
2018-08-11T11:20:53.219Z,84.60
2018-08-11T11:21:57.172Z,84.60
2018-08-11T11:23:01.160Z,84.40
2018-08-11T11:24:05.277Z,84.60
2018-08-11T11:25:09.315Z,84.30
2018-08-11T11:26:14.104Z,84.30
2018-08-11T11:27:18.118Z,84.20
2018-08-11T11:28:22.099Z,84.10
2018-08-11T11:29:26.091Z,84.50
2018-08-11T11:30:30.104Z,84.40
2018-08-11T11:31:34.276Z,84.50
2018-08-11T11:32:38.372Z,84.40
2018-08-11T11:33:42.339Z,84.50
2018-08-11T11:34:46.345Z,83.40
2018-08-11T11:35:50.342Z,83.00
2018-08-11T11:36:54.522Z,82.50
2018-08-11T11:37:58.581Z,82.80
2018-08-11T11:39:02.663Z,83.00
2018-08-11T11:40:07.162Z,84.30
2018-08-11T11:41:11.166Z,84.10
2018-08-11T11:42:15.151Z,83.90
2018-08-11T11:43:19.198Z,83.80
2018-08-11T11:44:23.185Z,84.30
2018-08-11T11:45:27.170Z,84.20
2018-08-11T11:46:31.270Z,84.20
2018-08-11T11:47:35.288Z,84.20
2018-08-11T11:48:39.289Z,83.90
2018-08-11T11:49:43.623Z,82.60
2018-08-11T11:50:47.620Z,82.60
2018-08-11T11:51:51.624Z,83.80
2018-08-11T11:52:55.601Z,83.90
2018-08-11T11:53:59.608Z,83.60
2018-08-11T11:55:03.839Z,82.80
2018-08-11T11:56:07.821Z,83.20
2018-08-11T11:57:11.858Z,82.80
2018-08-11T11:58:15.973Z,82.80
2018-08-11T11:59:20.077Z,83.50
2018-08-11T12:00:24.119Z,84.40
2018-08-11T12:01:28.184Z,84.70
2018-08-11T12:02:32.167Z,84.70
2018-08-11T12:03:36.191Z,83.10
2018-08-11T12:04:40.195Z,83.70
2018-08-11T12:05:44.298Z,83.30
2018-08-11T12:06:48.282Z,82.90
2018-08-11T12:07:52.464Z,83.50
2018-08-11T12:08:56.463Z,83.90
2018-08-11T12:10:00.571Z,82.60
2018-08-11T12:11:04.568Z,83.00
2018-08-11T12:12:08.646Z,83.00
2018-08-11T12:13:12.629Z,83.60
2018-08-11T12:14:16.660Z,83.60
2018-08-11T12:15:20.652Z,83.10
2018-08-11T12:16:24.626Z,82.70
2018-08-11T12:17:28.710Z,81.50
2018-08-11T12:18:33.426Z,80.60
2018-08-11T12:19:37.416Z,80.50
2018-08-11T12:20:41.467Z,81.00
2018-08-11T12:21:47.468Z,81.40
2018-08-11T12:22:51.987Z,81.10
2018-08-11T12:23:56.040Z,81.40
2018-08-11T12:25:00.038Z,81.60
2018-08-11T12:26:05.099Z,80.70
2018-08-11T12:27:09.572Z,80.70
2018-08-11T12:28:13.889Z,79.00
2018-08-11T12:29:17.925Z,80.30
2018-08-11T12:30:21.959Z,80.40
2018-08-11T12:31:25.949Z,78.60
2018-08-11T12:32:29.952Z,79.60
2018-08-11T12:33:34.015Z,78.90
2018-08-11T12:34:38.382Z,80.20
2018-08-11T12:35:42.531Z,79.60
2018-08-11T12:36:46.759Z,80.30
2018-08-11T12:37:50.764Z,80.80
2018-08-11T12:38:54.788Z,80.00
2018-08-11T12:39:58.785Z,80.00
2018-08-11T12:41:02.800Z,79.80
2018-08-11T12:42:06.829Z,80.90
2018-08-11T12:43:11.183Z,79.70
2018-08-11T12:44:15.191Z,79.00
2018-08-11T12:45:19.435Z,78.50
2018-08-11T12:46:23.441Z,78.10
2018-08-11T12:47:27.459Z,78.70
2018-08-11T12:48:31.641Z,78.90
2018-08-11T12:49:35.622Z,78.80
2018-08-11T12:50:39.644Z,78.10
2018-08-11T12:51:43.865Z,77.50
2018-08-11T12:52:47.833Z,77.50
2018-08-11T12:53:51.828Z,76.60
2018-08-11T12:54:55.864Z,77.60
2018-08-11T12:55:59.837Z,76.60
2018-08-11T12:57:04.148Z,77.30
2018-08-11T12:58:08.168Z,77.30
2018-08-11T12:59:12.187Z,75.60
2018-08-11T13:00:16.236Z,76.00
2018-08-11T13:01:20.288Z,76.20
2018-08-11T13:02:24.354Z,75.50
2018-08-11T13:03:28.339Z,75.60
2018-08-11T13:04:32.351Z,74.70
2018-08-11T13:05:36.414Z,75.30
2018-08-11T13:06:40.446Z,74.40
2018-08-11T13:07:44.473Z,74.70
2018-08-11T13:08:48.474Z,74.90
2018-08-11T13:09:52.457Z,73.00
2018-08-11T13:10:56.476Z,73.90
2018-08-11T13:12:00.497Z,73.10
2018-08-11T13:13:04.478Z,74.00
2018-08-11T13:14:08.477Z,74.60
2018-08-11T13:15:12.458Z,74.40
2018-08-11T13:16:16.472Z,75.60
2018-08-11T13:17:20.476Z,76.90
2018-08-11T13:18:24.653Z,76.60
2018-08-11T13:19:29.161Z,76.70
2018-08-11T13:20:33.224Z,76.50
2018-08-11T13:21:37.398Z,75.90
2018-08-11T13:22:41.425Z,75.80
2018-08-11T13:23:45.465Z,75.40
2018-08-11T13:24:49.578Z,74.60
2018-08-11T13:25:53.612Z,73.60
2018-08-11T13:26:57.616Z,74.80
2018-08-11T13:28:02.435Z,74.50
2018-08-11T13:29:06.412Z,73.80
2018-08-11T13:30:10.410Z,73.70
2018-08-11T13:31:14.402Z,72.90
2018-08-11T13:32:18.492Z,72.30
2018-08-11T13:33:22.831Z,70.70
2018-08-11T13:34:26.850Z,70.10
2018-08-11T13:35:30.860Z,70.60
2018-08-11T13:36:34.976Z,68.30
2018-08-11T13:37:38.995Z,68.30
2018-08-11T13:38:43.112Z,68.90
2018-08-11T13:39:49.372Z,69.40
2018-08-11T13:40:53.336Z,68.10
2018-08-11T13:41:57.407Z,66.30
2018-08-11T13:43:01.425Z,67.00
2018-08-11T13:44:05.779Z,66.20
2018-08-11T13:45:10.953Z,66.80
2018-08-11T13:46:15.031Z,67.00